createdAt,value
2018-02-14T00:01:03.946Z,68.77
2018-02-14T00:02:16.497Z,68.49
2018-02-14T00:03:26.634Z,69.06
2018-02-14T00:04:36.749Z,68.87
2018-02-14T00:05:46.883Z,68.87
2018-02-14T00:06:57.005Z,68.96
2018-02-14T00:08:07.196Z,68.68
2018-02-14T00:09:17.411Z,68.96
2018-02-14T00:10:27.598Z,68.96
2018-02-14T00:11:37.844Z,68.87
2018-02-14T00:12:48.086Z,69.53
2018-02-14T00:13:57.942Z,69.63
2018-02-14T00:15:08.095Z,69.63
2018-02-14T00:16:17.970Z,69.44
2018-02-14T00:17:28.095Z,69.44
2018-02-14T00:18:38.208Z,69.34
2018-02-14T00:19:48.108Z,69.15
2018-02-14T00:20:58.210Z,69.25
2018-02-14T00:22:08.350Z,69.34
2018-02-14T00:23:18.550Z,69.25
2018-02-14T00:24:28.751Z,69.15
2018-02-14T00:25:38.964Z,69.15
2018-02-14T00:26:49.130Z,69.34
2018-02-14T00:27:59.235Z,69.25
2018-02-14T00:29:09.606Z,69.82
2018-02-14T00:30:19.745Z,69.53
2018-02-14T00:31:29.843Z,69.34
2018-02-14T00:32:39.956Z,69.63
2018-02-14T00:33:50.107Z,69.34
2018-02-14T00:34:59.990Z,69.25
2018-02-14T00:36:10.115Z,69.34
2018-02-14T00:37:19.891Z,69.82
2018-02-14T00:38:30.009Z,69.63
2018-02-14T00:39:40.203Z,69.91
2018-02-14T00:40:50.415Z,69.63
2018-02-14T00:42:00.534Z,69.72
2018-02-14T00:43:10.465Z,69.53
2018-02-14T00:44:20.682Z,69.72
2018-02-14T00:45:30.816Z,69.63
2018-02-14T00:46:41.012Z,69.82
2018-02-14T00:47:51.181Z,69.63
2018-02-14T00:49:01.535Z,70.1
2018-02-14T00:50:11.038Z,70.1
2018-02-14T00:51:21.184Z,70.2
2018-02-14T00:52:31.078Z,70.29
2018-02-14T00:53:41.193Z,70.48
2018-02-14T00:54:51.311Z,70.39
2018-02-14T00:56:01.443Z,70.39
2018-02-14T00:57:11.577Z,70.42
2018-02-14T00:58:21.900Z,70.39
2018-02-14T00:59:32.134Z,70.51
2018-02-14T01:00:41.995Z,70.32
2018-02-14T01:01:52.104Z,70.14
2018-02-14T01:03:02.233Z,70.1
2018-02-14T01:04:12.347Z,70.23
2018-02-14T01:05:22.624Z,70.23
2018-02-14T01:06:32.774Z,69.85
2018-02-14T01:07:42.661Z,69.85
2018-02-14T01:08:52.778Z,69.85
2018-02-14T01:10:02.940Z,69.66
2018-02-14T01:11:13.287Z,69.76
2018-02-14T01:12:23.143Z,69.66
2018-02-14T01:13:32.993Z,70.14
2018-02-14T01:14:43.108Z,70.2
2018-02-14T01:15:53.223Z,69.91
2018-02-14T01:17:03.347Z,69.53
2018-02-14T01:18:13.463Z,69.82
2018-02-14T01:19:23.588Z,70.2
2018-02-14T01:20:33.694Z,70.32
2018-02-14T01:21:43.548Z,69.85
2018-02-14T01:22:53.656Z,69.76
2018-02-14T01:24:03.780Z,69.85
2018-02-14T01:25:14.177Z,69.85
2018-02-14T01:26:24.297Z,69.76
2018-02-14T01:27:34.445Z,69.95
2018-02-14T01:28:44.625Z,69.95
2018-02-14T01:29:54.807Z,69.19
2018-02-14T01:31:04.970Z,69.57
2018-02-14T01:32:15.326Z,69.28
2018-02-14T01:33:25.492Z,69.28
2018-02-14T01:34:35.601Z,69.19
2018-02-14T01:35:45.735Z,69.09
2018-02-14T01:36:55.879Z,69.15
2018-02-14T01:38:06.009Z,70.1
2018-02-14T01:39:16.115Z,69.53
2018-02-14T01:40:26.290Z,70.29
2018-02-14T01:41:36.293Z,70.2
2018-02-14T01:42:46.404Z,70.01
2018-02-14T01:43:56.529Z,70.2
2018-02-14T01:45:06.489Z,70.39
2018-02-14T01:46:16.440Z,69.91
2018-02-14T01:47:26.303Z,70.39
2018-02-14T01:48:36.498Z,70.48
2018-02-14T01:49:46.634Z,70.2
2018-02-14T01:50:56.814Z,70.39
2018-02-14T01:52:06.691Z,70.48
2018-02-14T01:53:16.906Z,70.57
2018-02-14T01:54:27.093Z,70.48
2018-02-14T01:55:37.226Z,70.1
2018-02-14T01:56:47.397Z,70.2
2018-02-14T01:57:57.522Z,70.48
2018-02-14T01:59:07.637Z,70.23
2018-02-14T02:00:17.496Z,70.48
2018-02-14T02:01:27.400Z,70.42
2018-02-14T02:02:37.785Z,70.23
2018-02-14T02:03:47.905Z,70.1
2018-02-14T02:04:58.005Z,69.57
2018-02-14T02:06:09.095Z,69.57
2018-02-14T02:07:18.984Z,69.57
2018-02-14T02:08:29.153Z,69.66
2018-02-14T02:09:39.303Z,69.76
2018-02-14T02:10:49.415Z,69.95
2018-02-14T02:11:59.535Z,69.47
2018-02-14T02:13:09.753Z,69.66
2018-02-14T02:14:19.857Z,69.57
2018-02-14T02:15:29.996Z,69.19
2018-02-14T02:16:40.097Z,69.57
2018-02-14T02:17:50.221Z,69.57
2018-02-14T02:19:00.402Z,69.66
2018-02-14T02:20:10.541Z,69.28
2018-02-14T02:21:20.876Z,69.47
2018-02-14T02:22:31.025Z,69.76
2018-02-14T02:23:41.239Z,69.66
2018-02-14T02:24:51.345Z,69.38
2018-02-14T02:26:01.514Z,68.81
2018-02-14T02:27:11.630Z,68.9
2018-02-14T02:28:21.368Z,69.38
2018-02-14T02:29:31.469Z,69.19
2018-02-14T02:30:41.687Z,69.38
2018-02-14T02:31:51.549Z,69
2018-02-14T02:33:01.674Z,69.09
2018-02-14T02:34:11.601Z,68.9
2018-02-14T02:35:21.712Z,69.09
2018-02-14T02:36:31.836Z,69.09
2018-02-14T02:37:42.032Z,68.71
2018-02-14T02:38:52.211Z,69.06
2018-02-14T02:40:02.632Z,69.25
2018-02-14T02:41:12.771Z,69.53
2018-02-14T02:42:22.916Z,69.53
2018-02-14T02:43:32.771Z,69.34
2018-02-14T02:44:42.884Z,69.63
2018-02-14T02:45:53.000Z,69.63
2018-02-14T02:47:02.889Z,69.34
2018-02-14T02:48:13.025Z,69.53
2018-02-14T02:49:22.962Z,69.15
2018-02-14T02:50:33.058Z,69.53
2018-02-14T02:51:43.167Z,69.63
2018-02-14T02:52:53.290Z,69.53
2018-02-14T02:54:03.452Z,69.25
2018-02-14T02:55:13.202Z,69.15
2018-02-14T02:56:23.049Z,69.15
2018-02-14T02:57:33.191Z,69.34
2018-02-14T02:58:43.394Z,69.34
2018-02-14T02:59:53.289Z,69.63
2018-02-14T03:01:03.403Z,69.44
2018-02-14T03:02:13.293Z,70.01
2018-02-14T03:03:23.146Z,69.72
2018-02-14T03:04:32.670Z,70.1
2018-02-14T03:05:42.837Z,69.72
2018-02-14T03:06:53.074Z,70.01
2018-02-14T03:08:03.459Z,69.25
2018-02-14T03:09:13.564Z,69.34
2018-02-14T03:10:23.698Z,69.34
2018-02-14T03:11:33.828Z,69.53
2018-02-14T03:12:43.965Z,69.15
2018-02-14T03:13:54.074Z,69.34
2018-02-14T03:15:04.193Z,69.53
2018-02-14T03:16:15.348Z,69.91
2018-02-14T03:17:25.216Z,69.91
2018-02-14T03:18:35.347Z,69.63
2018-02-14T03:19:45.461Z,69.34
2018-02-14T03:20:55.330Z,69.53
2018-02-14T03:22:05.441Z,69.53
2018-02-14T03:23:15.561Z,69.53
2018-02-14T03:24:25.708Z,69.15
2018-02-14T03:25:35.858Z,69.44
2018-02-14T03:26:45.927Z,69.06
2018-02-14T03:27:56.108Z,68.96
2018-02-14T03:29:06.434Z,68.96
2018-02-14T03:30:16.185Z,69.06
2018-02-14T03:31:25.964Z,68.87
2018-02-14T03:32:36.067Z,68.96
2018-02-14T03:33:46.184Z,69.06
2018-02-14T03:34:56.037Z,68.87
2018-02-14T03:36:05.881Z,69.53
2018-02-14T03:37:15.988Z,69.15
2018-02-14T03:38:26.094Z,69.34
2018-02-14T03:39:36.198Z,69.15
2018-02-14T03:40:46.306Z,69.63
2018-02-14T03:41:56.419Z,69.53
2018-02-14T03:43:06.275Z,69.72
2018-02-14T03:44:16.161Z,69.49
2018-02-14T03:45:26.272Z,70.06
2018-02-14T03:46:36.372Z,69.87
2018-02-14T03:47:46.652Z,70.54
2018-02-14T03:48:56.500Z,70.35
2018-02-14T03:50:06.608Z,70.06
2018-02-14T03:51:16.718Z,70.73
2018-02-14T03:52:26.831Z,71.11
2018-02-14T03:53:37.024Z,70.63
2018-02-14T03:54:47.190Z,71.11
2018-02-14T03:55:57.315Z,70.63
2018-02-14T03:57:07.528Z,70.25
2018-02-14T03:58:17.632Z,70.25
2018-02-14T03:59:28.719Z,70.16
2018-02-14T04:00:39.101Z,70.25
2018-02-14T04:01:49.208Z,70.44
2018-02-14T04:02:59.993Z,70.44
2018-02-14T04:04:10.173Z,70.44
2018-02-14T04:05:20.280Z,70.73
2018-02-14T04:06:30.387Z,70.54
2018-02-14T04:07:40.520Z,70.92
2018-02-14T04:08:50.485Z,70.73
2018-02-14T04:10:00.678Z,70.92
2018-02-14T04:11:10.846Z,71.11
2018-02-14T04:12:21.034Z,70.82
2018-02-14T04:13:31.301Z,70.92
2018-02-14T04:14:41.502Z,71.11
2018-02-14T04:15:51.770Z,71.39
2018-02-14T04:17:01.902Z,71.3
2018-02-14T04:18:12.008Z,71.2
2018-02-14T04:19:22.111Z,71.2
2018-02-14T04:20:32.242Z,71.11
2018-02-14T04:21:42.420Z,71.2
2018-02-14T04:22:52.560Z,71.3
2018-02-14T04:24:02.414Z,71.58
2018-02-14T04:25:12.624Z,71.67
2018-02-14T04:26:22.755Z,71.86
2018-02-14T04:27:32.980Z,71.58
2018-02-14T04:28:43.136Z,71.48
2018-02-14T04:29:53.362Z,71.58
2018-02-14T04:31:03.569Z,71.77
2018-02-14T04:32:13.847Z,71.67
2018-02-14T04:33:23.741Z,71.86
2018-02-14T04:34:33.874Z,71.95
2018-02-14T04:35:43.763Z,71.95
2018-02-14T04:36:53.630Z,71.77
2018-02-14T04:38:03.728Z,72.14
2018-02-14T04:39:13.838Z,72.33
2018-02-14T04:40:23.954Z,72.33
2018-02-14T04:41:34.077Z,72.43
2018-02-14T04:42:44.177Z,72.14
2018-02-14T04:43:54.286Z,72.62
2018-02-14T04:45:04.508Z,72.62
2018-02-14T04:46:14.643Z,72.43
2018-02-14T04:47:24.811Z,72.62
2018-02-14T04:48:35.048Z,72.52
2018-02-14T04:49:45.187Z,72.62
2018-02-14T04:50:55.364Z,72.52
2018-02-14T04:52:05.236Z,72.71
2018-02-14T04:53:15.376Z,72.8
2018-02-14T04:54:25.482Z,72.8
2018-02-14T04:55:35.625Z,72.9
2018-02-14T04:56:45.749Z,72.49
2018-02-14T04:57:55.983Z,72.67
2018-02-14T04:59:06.221Z,72.39
2018-02-14T05:00:16.570Z,72.52
2018-02-14T05:01:26.674Z,72.86
2018-02-14T05:02:36.781Z,72.96
2018-02-14T05:03:47.112Z,73.14
2018-02-14T05:04:57.272Z,73.14
2018-02-14T05:06:07.382Z,72.96
2018-02-14T05:07:17.658Z,73.28
2018-02-14T05:08:27.812Z,73.33
2018-02-14T05:09:38.176Z,72.96
2018-02-14T05:10:48.441Z,72.99
2018-02-14T05:11:58.609Z,72.96
2018-02-14T05:13:08.848Z,72.8
2018-02-14T05:14:18.689Z,72.99
2018-02-14T05:15:28.840Z,73.28
2018-02-14T05:16:38.948Z,72.71
2018-02-14T05:17:49.184Z,72.99
2018-02-14T05:19:00.360Z,72.71
2018-02-14T05:20:10.235Z,72.9
2018-02-14T05:21:20.116Z,72.9
2018-02-14T05:22:30.239Z,72.99
2018-02-14T05:23:40.397Z,72.96
2018-02-14T05:24:50.506Z,73.09
2018-02-14T05:26:00.622Z,73.05
2018-02-14T05:27:10.739Z,73.05
2018-02-14T05:28:20.869Z,72.96
2018-02-14T05:29:31.096Z,72.96
2018-02-14T05:30:41.207Z,73.05
2018-02-14T05:31:51.328Z,73.43
2018-02-14T05:33:01.459Z,73.24
2018-02-14T05:34:11.736Z,73.14
2018-02-14T05:35:22.024Z,73.43
2018-02-14T05:36:31.866Z,73.52
2018-02-14T05:37:41.998Z,73.62
2018-02-14T05:38:52.148Z,73.43
2018-02-14T05:40:02.283Z,73.62
2018-02-14T05:41:12.415Z,73.33
2018-02-14T05:42:22.405Z,73.24
2018-02-14T05:43:33.618Z,73.52
2018-02-14T05:44:43.731Z,73.43
2018-02-14T05:45:54.086Z,72.96
2018-02-14T05:47:04.301Z,73.71
2018-02-14T05:48:14.517Z,73.62
2018-02-14T05:49:24.706Z,73.62
2018-02-14T05:50:34.912Z,73.43
2018-02-14T05:51:45.148Z,73.33
2018-02-14T05:52:55.013Z,73.24
2018-02-14T05:54:05.153Z,73.81
2018-02-14T05:55:15.300Z,74.19
2018-02-14T05:56:25.455Z,73.9
2018-02-14T05:57:35.323Z,74
2018-02-14T05:58:45.454Z,74
2018-02-14T05:59:55.593Z,73.9
2018-02-14T06:01:05.793Z,73.94
2018-02-14T06:02:15.913Z,73.85
2018-02-14T06:03:26.027Z,73.85
2018-02-14T06:04:35.897Z,73.75
2018-02-14T06:05:46.251Z,73.28
2018-02-14T06:06:56.402Z,73.09
2018-02-14T06:08:06.507Z,73.94
2018-02-14T06:09:16.809Z,73.66
2018-02-14T06:10:26.917Z,73.66
2018-02-14T06:11:37.126Z,72.99
2018-02-14T06:12:47.238Z,73.56
2018-02-14T06:13:57.449Z,73.47
2018-02-14T06:15:07.382Z,73.47
2018-02-14T06:16:17.474Z,73.47
2018-02-14T06:17:27.628Z,73.47
2018-02-14T06:18:37.753Z,73.47
2018-02-14T06:19:47.993Z,73.47
2018-02-14T06:20:58.127Z,73.56
2018-02-14T06:22:08.242Z,73.56
2018-02-14T06:23:18.227Z,73.47
2018-02-14T06:24:28.345Z,73.56
2018-02-14T06:25:37.933Z,73.52
2018-02-14T06:26:48.067Z,73.85
2018-02-14T06:27:58.204Z,72.99
2018-02-14T06:29:07.984Z,73.62
2018-02-14T06:30:17.862Z,73.24
2018-02-14T06:31:28.232Z,73.66
2018-02-14T06:32:38.435Z,73.66
2018-02-14T06:33:48.551Z,73.62
2018-02-14T06:34:58.659Z,73.71
2018-02-14T06:36:08.575Z,73.52
2018-02-14T06:37:18.693Z,74
2018-02-14T06:38:28.837Z,73.43
2018-02-14T06:39:38.958Z,73.62
2018-02-14T06:40:49.068Z,73.81
2018-02-14T06:41:59.219Z,73.71
2018-02-14T06:43:09.414Z,73.81
2018-02-14T06:44:19.289Z,73.81
2018-02-14T06:45:29.434Z,73.81
2018-02-14T06:46:39.607Z,73.62
2018-02-14T06:47:50.059Z,73.81
2018-02-14T06:49:00.259Z,73.71
2018-02-14T06:50:10.173Z,73.33
2018-02-14T06:51:20.296Z,73.37
2018-02-14T06:52:30.425Z,73.56
2018-02-14T06:53:40.550Z,73.62
2018-02-14T06:54:50.691Z,73.56
2018-02-14T06:56:00.852Z,73.24
2018-02-14T06:57:10.796Z,73.56
2018-02-14T06:58:20.973Z,73.62
2018-02-14T06:59:31.099Z,73.37
2018-02-14T07:00:41.388Z,73.66
2018-02-14T07:01:51.500Z,73.66
2018-02-14T07:03:02.691Z,73.47
2018-02-14T07:04:12.813Z,73.94
2018-02-14T07:05:22.957Z,73.66
2018-02-14T07:06:33.185Z,73.37
2018-02-14T07:07:43.287Z,73.37
2018-02-14T07:08:53.415Z,73.47
2018-02-14T07:10:03.267Z,73.28
2018-02-14T07:11:13.415Z,73.09
2018-02-14T07:12:24.506Z,73.18
2018-02-14T07:13:34.614Z,72.47
2018-02-14T07:14:45.695Z,71.71
2018-02-14T07:15:55.790Z,70.98
2018-02-14T07:17:05.988Z,70.45
2018-02-14T07:18:17.076Z,68.88
2018-02-14T07:19:27.494Z,67.93
2018-02-14T07:20:37.536Z,67.49
2018-02-14T07:21:47.880Z,67.14
2018-02-14T07:22:58.014Z,66.39
2018-02-14T07:24:08.263Z,65.37
2018-02-14T07:25:18.428Z,64.9
2018-02-14T07:26:28.272Z,64.37
2018-02-14T07:27:38.147Z,63.23
2018-02-14T07:28:48.261Z,62.69
2018-02-14T07:29:58.475Z,62.31
2018-02-14T07:31:08.592Z,61.1
2018-02-14T07:32:18.731Z,60.53
2018-02-14T07:33:28.864Z,60.16
2018-02-14T07:34:38.767Z,59.05
2018-02-14T07:35:49.162Z,58.66
2018-02-14T07:36:59.294Z,58.76
2018-02-14T07:38:09.481Z,57.26
2018-02-14T07:39:19.603Z,56.7
2018-02-14T07:40:29.886Z,56.24
2018-02-14T07:41:40.064Z,55.87
2018-02-14T07:42:50.007Z,55.29
2018-02-14T07:44:01.303Z,54.94
2018-02-14T07:45:11.478Z,54.85
2018-02-14T07:46:21.360Z,54.66
2018-02-14T07:47:31.294Z,53.7
2018-02-14T07:48:41.150Z,53.35
2018-02-14T07:49:51.342Z,52.68
2018-02-14T07:51:01.486Z,52.3
2018-02-14T07:52:11.663Z,52.11
2018-02-14T07:53:21.225Z,51.47
2018-02-14T07:54:31.346Z,51.18
2018-02-14T07:55:41.452Z,50.61
2018-02-14T07:56:51.573Z,50.52
2018-02-14T07:58:01.845Z,49.78
2018-02-14T07:59:12.000Z,49.02
2018-02-14T08:00:22.144Z,48.92
2018-02-14T08:01:32.366Z,48.54
2018-02-14T08:02:42.521Z,48.07
2018-02-14T08:03:52.548Z,47.42
2018-02-14T08:05:02.767Z,46.84
2018-02-14T08:06:12.620Z,47.03
2018-02-14T08:07:22.787Z,46.27
2018-02-14T08:08:33.137Z,45.53
2018-02-14T08:09:43.287Z,45.82
2018-02-14T08:10:53.402Z,45.15
2018-02-14T08:12:03.572Z,45.25
2018-02-14T08:13:14.692Z,44.38
2018-02-14T08:14:24.797Z,44.01
2018-02-14T08:15:34.961Z,44.01
2018-02-14T08:16:45.095Z,43.62
2018-02-14T08:17:55.200Z,42.57
2018-02-14T08:19:05.324Z,42.77
2018-02-14T08:20:15.261Z,42.48
2018-02-14T08:21:25.452Z,42.48
2018-02-14T08:22:35.582Z,42.65
2018-02-14T08:23:45.706Z,42.46
2018-02-14T08:24:55.937Z,42.65
2018-02-14T08:26:06.203Z,42.46
2018-02-14T08:27:16.078Z,42.57
2018-02-14T08:28:26.215Z,42.11
2018-02-14T08:29:36.402Z,42.5
2018-02-14T08:30:46.618Z,41.83
2018-02-14T08:31:56.805Z,41.56
2018-02-14T08:33:06.709Z,41.09
2018-02-14T08:34:16.673Z,40.44
2018-02-14T08:35:26.945Z,40.15
2018-02-14T08:36:37.063Z,39.48
2018-02-14T08:37:47.210Z,38.93
2018-02-14T08:38:57.360Z,37.78
2018-02-14T08:40:07.546Z,37.99
2018-02-14T08:41:17.698Z,37.32
2018-02-14T08:42:27.826Z,36.96
2018-02-14T08:43:38.054Z,36.47
2018-02-14T08:44:48.203Z,36.38
2018-02-14T08:45:58.496Z,36.1
2018-02-14T08:47:08.374Z,35.71
2018-02-14T08:48:18.551Z,35.81
2018-02-14T08:49:28.709Z,35.63
2018-02-14T08:50:38.831Z,35.63
2018-02-14T08:51:48.944Z,35.16
2018-02-14T08:52:59.076Z,34.67
2018-02-14T08:54:09.236Z,34.58
2018-02-14T08:55:19.401Z,34.2
2018-02-14T08:56:29.299Z,34.1
2018-02-14T08:57:39.535Z,34.02
2018-02-14T08:58:49.717Z,33.54
2018-02-14T08:59:59.855Z,33.25
2018-02-14T09:01:09.990Z,33.25
2018-02-14T09:02:21.117Z,32.78
2018-02-14T09:03:31.313Z,32.78
2018-02-14T09:04:41.535Z,32.79
2018-02-14T09:05:51.433Z,32.51
2018-02-14T09:07:01.607Z,32.79
2018-02-14T09:08:43.392Z,32.21
2018-02-14T09:09:53.680Z,32.04
2018-02-14T09:11:03.842Z,31.75
2018-02-14T09:12:14.065Z,32.14
2018-02-14T09:13:23.987Z,31.85
2018-02-14T09:14:35.093Z,31.46
2018-02-14T09:15:44.955Z,31.27
2018-02-14T09:16:55.102Z,31.08
2018-02-14T09:18:05.227Z,30.9
2018-02-14T09:19:15.407Z,30.81
2018-02-14T09:20:25.587Z,30.9
2018-02-14T09:21:35.861Z,30.71
2018-02-14T09:22:45.759Z,30.9
2018-02-14T09:23:55.898Z,30.62
2018-02-14T09:25:06.050Z,30.62
2018-02-14T09:26:16.236Z,30.62
2018-02-14T09:27:26.553Z,30.7
2018-02-14T09:28:36.737Z,30.6
2018-02-14T09:29:46.600Z,30.7
2018-02-14T09:30:56.719Z,30.7
2018-02-14T09:32:06.619Z,30.6
2018-02-14T09:33:16.777Z,30.22
2018-02-14T09:34:26.906Z,30.32
2018-02-14T09:35:37.155Z,30.02
2018-02-14T09:36:47.352Z,29.93
2018-02-14T09:37:57.241Z,29.94
2018-02-14T09:39:07.384Z,29.94
2018-02-14T09:40:17.541Z,29.85
2018-02-14T09:41:27.692Z,30.04
2018-02-14T09:42:38.851Z,30.23
2018-02-14T09:47:33.436Z,30.02
2018-02-14T09:48:43.696Z,29.93
2018-02-14T09:49:53.857Z,30.22
2018-02-14T09:51:04.099Z,30.11
2018-02-14T09:53:27.780Z,30.3
2018-02-14T09:54:38.335Z,30.4
2018-02-14T09:55:49.713Z,30.3
2018-02-14T09:56:59.925Z,30.3
2018-02-14T09:58:11.349Z,30.49
2018-02-14T09:59:22.581Z,30.4
2018-02-14T10:01:47.541Z,30.49
2018-02-14T10:04:13.532Z,30.3
2018-02-14T10:05:23.762Z,30.67
2018-02-14T10:06:33.990Z,30.57
2018-02-14T10:07:44.256Z,30.47
2018-02-14T10:08:54.497Z,30.49
2018-02-14T10:10:04.670Z,29.91
2018-02-14T10:11:14.973Z,29.82
2018-02-14T10:12:24.872Z,29.82
2018-02-14T10:13:35.091Z,29.82
2018-02-14T10:14:44.996Z,29.74
2018-02-14T10:15:55.152Z,29.63
2018-02-14T10:17:05.300Z,29.63
2018-02-14T10:18:15.434Z,29.91
2018-02-14T10:19:25.564Z,30.11
2018-02-14T10:20:35.794Z,30.01
2018-02-14T10:21:45.959Z,29.63
2018-02-14T10:22:56.153Z,29.72
2018-02-14T10:24:06.329Z,29.71
2018-02-14T10:25:17.184Z,29.42
2018-02-14T10:26:27.315Z,29.52
2018-02-14T10:27:37.546Z,29.61
2018-02-14T10:28:47.703Z,29.9
2018-02-14T10:29:57.963Z,30.08
2018-02-14T10:31:08.240Z,29.9
2018-02-14T10:32:18.460Z,29.9
2018-02-14T10:33:28.654Z,29.9
2018-02-14T10:34:38.828Z,29.52
2018-02-14T10:35:49.005Z,29.24
2018-02-14T10:36:59.151Z,29.63
2018-02-14T10:38:09.114Z,29.63
2018-02-14T10:39:19.305Z,29.53
2018-02-14T10:40:29.589Z,29.72
2018-02-14T10:41:39.754Z,29.44
2018-02-14T10:42:49.684Z,29.24
2018-02-14T10:43:59.825Z,29.44
2018-02-14T10:45:09.986Z,29.15
2018-02-14T10:46:20.148Z,28.96
2018-02-14T10:47:29.996Z,29.52
2018-02-14T10:48:40.149Z,29.42
2018-02-14T10:49:50.364Z,29.53
2018-02-14T10:51:00.498Z,29.24
2018-02-14T10:52:10.767Z,29.15
2018-02-14T10:53:20.676Z,28.77
2018-02-14T10:54:30.906Z,28.96
2018-02-14T10:55:41.157Z,29.15
2018-02-14T10:56:51.307Z,29.05
2018-02-14T10:58:01.455Z,28.68
2018-02-14T10:59:11.616Z,28.59
2018-02-14T11:00:21.789Z,28.68
2018-02-14T11:01:32.968Z,28.97
2018-02-14T11:02:43.101Z,28.97
2018-02-14T11:03:53.237Z,28.59
2018-02-14T11:05:03.373Z,28.88
2018-02-14T11:06:13.282Z,28.49
2018-02-14T11:07:23.177Z,28.5
2018-02-14T11:08:33.338Z,28.41
2018-02-14T11:09:43.224Z,28.22
2018-02-14T11:10:53.393Z,28.3
2018-02-14T11:12:03.670Z,28.39
2018-02-14T11:13:13.831Z,28.49
2018-02-14T11:14:23.984Z,28.3
2018-02-14T11:15:34.154Z,27.92
2018-02-14T11:16:44.139Z,28.01
2018-02-14T11:17:54.343Z,27.05
2018-02-14T11:19:04.505Z,27.61
2018-02-14T11:20:14.380Z,27.61
2018-02-14T11:21:24.599Z,27.82
2018-02-14T11:22:34.841Z,27.72
2018-02-14T11:23:44.980Z,27.63
2018-02-14T11:24:55.115Z,27.44
2018-02-14T11:26:05.386Z,27.63
2018-02-14T11:27:15.531Z,28.01
2018-02-14T11:28:25.191Z,28.11
2018-02-14T11:29:35.350Z,27.15
2018-02-14T11:30:45.584Z,27.15
2018-02-14T11:31:55.758Z,27.25
2018-02-14T11:33:05.652Z,27.06
2018-02-14T11:34:15.863Z,26.59
2018-02-14T11:35:26.019Z,26.2
2018-02-14T11:36:35.937Z,26.01
2018-02-14T11:37:46.092Z,26.57
2018-02-14T11:38:56.282Z,26.76
2018-02-14T11:40:06.445Z,27.34
2018-02-14T11:41:17.590Z,27.25
2018-02-14T11:42:27.576Z,27.34
2018-02-14T11:43:37.730Z,27.34
2018-02-14T11:44:47.874Z,27.34
2018-02-14T11:45:58.094Z,27.42
2018-02-14T11:47:08.307Z,27.41
2018-02-14T11:48:18.498Z,27.22
2018-02-14T11:49:28.442Z,27.52
2018-02-14T11:50:38.567Z,27.42
2018-02-14T11:51:48.793Z,27.33
2018-02-14T11:52:58.927Z,27.14
2018-02-14T11:54:08.850Z,27.25
2018-02-14T11:55:19.079Z,27.34
2018-02-14T11:56:29.222Z,26.86
2018-02-14T11:57:39.384Z,26.59
2018-02-14T11:58:49.564Z,26.87
2018-02-14T12:00:00.697Z,26.59
2018-02-14T12:01:10.590Z,26.68
2018-02-14T12:02:20.724Z,26.3
2018-02-14T12:03:31.887Z,26.28
2018-02-14T12:04:42.041Z,26.57
2018-02-14T12:05:52.221Z,26.76
2018-02-14T12:07:02.526Z,26.76
2018-02-14T12:08:12.691Z,26.95
2018-02-14T12:09:22.842Z,26.86
2018-02-14T12:10:32.997Z,26.75
2018-02-14T12:11:43.155Z,27.14
2018-02-14T12:12:53.318Z,27.23
2018-02-14T12:14:03.459Z,27.52
2018-02-14T12:15:13.712Z,27.33
2018-02-14T12:16:23.860Z,27.33
2018-02-14T12:17:34.050Z,27.14
2018-02-14T12:18:44.196Z,26.75
2018-02-14T12:19:54.350Z,27.22
2018-02-14T12:21:04.562Z,27.22
2018-02-14T12:22:14.945Z,27.22
2018-02-14T12:23:25.191Z,27.31
2018-02-14T12:24:35.440Z,27.49
2018-02-14T12:25:45.650Z,27.59
2018-02-14T12:26:55.806Z,27.87
2018-02-14T12:28:05.992Z,27.97
2018-02-14T12:29:16.169Z,27.97
2018-02-14T12:30:26.382Z,28.26
2018-02-14T12:31:36.616Z,28.06
2018-02-14T12:32:46.986Z,28.16
2018-02-14T12:33:56.885Z,28.26
2018-02-14T12:35:07.041Z,28.17
2018-02-14T12:36:17.178Z,27.98
2018-02-14T12:37:27.359Z,27.98
2018-02-14T12:38:37.502Z,27.89
2018-02-14T12:39:47.707Z,27.98
2018-02-14T12:40:57.877Z,27.79
2018-02-14T12:42:08.063Z,27.79
2018-02-14T12:43:18.206Z,27.68
2018-02-14T12:44:28.379Z,27.97
2018-02-14T12:45:38.538Z,27.78
2018-02-14T12:46:48.700Z,27.49
2018-02-14T12:47:58.849Z,27.76
2018-02-14T12:49:08.775Z,27.76
2018-02-14T12:50:18.929Z,27.86
2018-02-14T12:51:28.841Z,27.67
2018-02-14T12:52:38.970Z,27.38
2018-02-14T12:53:49.176Z,27.19
2018-02-14T12:54:59.327Z,26.98
2018-02-14T12:56:09.803Z,27.47
2018-02-14T12:57:19.959Z,27.37
2018-02-14T12:58:30.100Z,27.66
2018-02-14T12:59:40.348Z,27.83
2018-02-14T13:00:50.237Z,27.73
2018-02-14T13:02:00.428Z,28.02
2018-02-14T13:03:10.774Z,28.12
2018-02-14T13:04:21.026Z,27.93
2018-02-14T13:05:31.205Z,28.22
2018-02-14T13:06:41.437Z,28.22
2018-02-14T13:07:51.640Z,28.39
2018-02-14T13:09:01.887Z,28.77
2018-02-14T13:10:12.113Z,28.87
2018-02-14T13:11:22.358Z,28.97
2018-02-14T13:12:32.530Z,29.25
2018-02-14T13:13:42.526Z,29.43
2018-02-14T13:14:52.492Z,29.72
2018-02-14T13:16:02.653Z,30
2018-02-14T13:17:12.895Z,30.19
2018-02-14T13:18:22.841Z,30.19
2018-02-14T13:19:32.953Z,30.1
2018-02-14T13:20:43.191Z,30.29
2018-02-14T13:21:53.454Z,30.37
2018-02-14T13:23:03.642Z,30.46
2018-02-14T13:24:13.798Z,30.46
2018-02-14T13:25:23.985Z,30.75
2018-02-14T13:26:33.878Z,30.85
2018-02-14T13:27:44.036Z,31.13
2018-02-14T13:28:54.213Z,31.42
2018-02-14T13:30:04.398Z,31.42
2018-02-14T13:31:14.638Z,31.42
2018-02-14T13:32:24.869Z,31.51
2018-02-14T13:33:35.065Z,31.6
2018-02-14T13:34:45.299Z,31.69
2018-02-14T13:35:55.440Z,31.79
2018-02-14T13:37:05.210Z,31.98
2018-02-14T13:38:15.422Z,31.5
2018-02-14T13:39:25.365Z,31.98
2018-02-14T13:40:35.489Z,32.17
2018-02-14T13:41:45.408Z,32.17
2018-02-14T13:42:55.547Z,32.24
2018-02-14T13:44:05.778Z,32.53
2018-02-14T13:45:15.920Z,32.73
2018-02-14T13:46:25.801Z,32.73
2018-02-14T13:47:35.959Z,32.63
2018-02-14T13:48:46.122Z,32.73
2018-02-14T13:49:56.284Z,32.63
2018-02-14T13:51:06.550Z,32.81
2018-02-14T13:52:16.788Z,32.81
2018-02-14T13:53:26.945Z,33.18
2018-02-14T13:54:37.078Z,32.42
2018-02-14T13:55:47.300Z,32.71
2018-02-14T13:56:57.466Z,32.79
2018-02-14T13:58:07.663Z,32.98
2018-02-14T13:59:17.825Z,33.34
2018-02-14T14:00:27.980Z,33.82
2018-02-14T14:01:38.113Z,33.82
2018-02-14T14:02:48.313Z,34.47
2018-02-14T14:03:58.498Z,34.56
2018-02-14T14:05:08.650Z,34.75
2018-02-14T14:06:18.851Z,34.75
2018-02-14T14:07:29.072Z,35.04
2018-02-14T14:08:39.319Z,35.04
2018-02-14T14:09:49.744Z,35.52
2018-02-14T14:10:59.894Z,35.69
2018-02-14T14:12:10.126Z,35.89
2018-02-14T14:13:20.273Z,35.97
2018-02-14T14:14:30.452Z,36.26
2018-02-14T14:15:40.600Z,36.26
2018-02-14T14:16:50.744Z,36.07
2018-02-14T14:18:00.920Z,36.35
2018-02-14T14:19:11.188Z,37.02
2018-02-14T14:20:21.096Z,36.93
2018-02-14T14:21:31.223Z,36.93
2018-02-14T14:22:41.480Z,36.74
2018-02-14T14:23:51.646Z,36.93
2018-02-14T14:25:01.798Z,37.02
2018-02-14T14:26:11.943Z,37.12
2018-02-14T14:27:22.096Z,37.02
2018-02-14T14:28:32.218Z,37.88
2018-02-14T14:29:42.356Z,37.49
2018-02-14T14:30:52.540Z,37.48
2018-02-14T14:32:02.469Z,37.95
2018-02-14T14:33:12.436Z,38.14
2018-02-14T14:34:22.425Z,38.14
2018-02-14T14:35:32.432Z,38.24
2018-02-14T14:36:42.601Z,38.71
2018-02-14T14:37:52.786Z,38.71
2018-02-14T14:39:03.052Z,38.89
2018-02-14T14:40:13.206Z,39
2018-02-14T14:41:23.386Z,39.09
2018-02-14T14:42:33.515Z,39.09
2018-02-14T14:43:43.702Z,39.48
2018-02-14T14:44:53.838Z,39.57
2018-02-14T14:46:03.958Z,40.03
2018-02-14T14:47:14.146Z,40.5
2018-02-14T14:48:24.296Z,40.31
2018-02-14T14:49:34.464Z,40.31
2018-02-14T14:50:44.602Z,40.41
2018-02-14T14:51:54.754Z,40.41
2018-02-14T14:53:04.882Z,40.69
2018-02-14T14:54:15.042Z,40.88
2018-02-14T14:55:24.914Z,40.88
2018-02-14T14:56:35.073Z,40.88
2018-02-14T14:57:44.983Z,41.07
2018-02-14T14:58:55.136Z,41.17
2018-02-14T15:00:05.274Z,41.17
2018-02-14T15:01:15.488Z,40.88
2018-02-14T15:02:25.685Z,40.98
2018-02-14T15:03:35.583Z,41.36
2018-02-14T15:04:45.792Z,41.17
2018-02-14T15:05:55.976Z,41.07
2018-02-14T15:07:06.173Z,41.17
2018-02-14T15:08:16.317Z,41.07
2018-02-14T15:09:26.583Z,41.26
2018-02-14T15:10:36.789Z,41.26
2018-02-14T15:11:46.942Z,41.26
2018-02-14T15:12:57.131Z,41.17
2018-02-14T15:14:08.236Z,41.74
2018-02-14T15:15:18.409Z,41.74